createdAt,value
2022-12-19T00:00:54.224Z,22.48
2022-12-19T00:01:54.313Z,22.48
2022-12-19T00:02:54.289Z,22.45
2022-12-19T00:03:54.229Z,22.48
2022-12-19T00:04:54.143Z,22.42
2022-12-19T00:05:54.076Z,22.45
2022-12-19T00:06:54.090Z,22.45
2022-12-19T00:07:54.131Z,22.43
2022-12-19T00:08:54.026Z,22.42
2022-12-19T00:09:54.012Z,22.42
2022-12-19T00:10:53.975Z,22.43
2022-12-19T00:11:53.913Z,22.42
2022-12-19T00:12:53.937Z,22.41
2022-12-19T00:13:53.894Z,22.39
2022-12-19T00:14:53.874Z,22.41
2022-12-19T00:15:53.867Z,22.39
2022-12-19T00:16:53.808Z,22.39
2022-12-19T00:17:53.760Z,22.38
2022-12-19T00:18:55.489Z,22.38
2022-12-19T00:19:53.713Z,22.38
2022-12-19T00:20:53.698Z,22.38
2022-12-19T00:21:53.661Z,22.38
2022-12-19T00:22:53.635Z,22.38
2022-12-19T00:23:53.671Z,22.35
2022-12-19T00:24:53.580Z,22.36
2022-12-19T00:25:53.537Z,22.36
2022-12-19T00:26:53.529Z,22.36
2022-12-19T00:27:53.476Z,22.36
2022-12-19T00:28:53.497Z,22.36
2022-12-19T00:29:53.449Z,22.35
2022-12-19T00:30:53.449Z,22.32
2022-12-19T00:31:53.458Z,22.35
2022-12-19T00:32:53.423Z,22.34
2022-12-19T00:33:53.363Z,22.32
2022-12-19T00:34:53.350Z,22.34
2022-12-19T00:35:53.317Z,22.32
2022-12-19T00:36:53.324Z,22.31
2022-12-19T00:37:53.261Z,22.31
2022-12-19T00:38:53.256Z,22.31
2022-12-19T00:39:53.312Z,22.32
2022-12-19T00:40:53.203Z,22.31
2022-12-19T00:41:53.129Z,22.28
2022-12-19T00:42:53.748Z,22.29
2022-12-19T00:43:53.110Z,22.28
2022-12-19T00:44:53.083Z,22.29
2022-12-19T00:45:53.105Z,22.27
2022-12-19T00:46:53.197Z,22.29
2022-12-19T00:47:52.994Z,22.29
2022-12-19T00:48:52.971Z,22.27
2022-12-19T00:51:23.731Z,22.27
2022-12-19T00:52:23.663Z,22.28
2022-12-19T00:53:23.704Z,22.27
2022-12-19T00:54:23.658Z,22.27
2022-12-19T00:55:23.795Z,22.25
2022-12-19T00:56:23.544Z,22.27
2022-12-19T00:57:23.560Z,22.27
2022-12-19T00:58:23.505Z,22.27
2022-12-19T00:59:26.694Z,22.27
2022-12-19T01:00:23.432Z,22.27
2022-12-19T01:01:23.633Z,22.24
2022-12-19T01:02:23.433Z,22.24
2022-12-19T01:03:23.413Z,22.22
2022-12-19T01:04:33.384Z,22.22
2022-12-19T01:05:24.346Z,22.22
2022-12-19T01:06:23.291Z,22.22
2022-12-19T01:07:23.286Z,22.22
2022-12-19T01:08:23.246Z,22.22
2022-12-19T01:09:23.225Z,22.24
2022-12-19T01:10:23.156Z,22.22
2022-12-19T01:11:23.258Z,22.21
2022-12-19T01:12:24.556Z,22.21
2022-12-19T01:13:23.129Z,22.19
2022-12-19T01:14:23.483Z,22.21
2022-12-19T01:15:23.084Z,22.19
2022-12-19T01:16:23.075Z,22.18
2022-12-19T01:17:23.020Z,22.18
2022-12-19T01:18:22.958Z,22.18
2022-12-19T01:19:22.967Z,22.19
2022-12-19T01:20:29.610Z,22.18
2022-12-19T01:21:23.896Z,22.16
2022-12-19T01:22:22.832Z,22.16
2022-12-19T01:23:22.864Z,22.18
2022-12-19T01:24:22.815Z,22.16
2022-12-19T01:25:22.783Z,22.16
2022-12-19T01:26:22.787Z,22.18
2022-12-19T01:27:22.842Z,22.16
2022-12-19T01:28:22.685Z,22.16
2022-12-19T01:29:22.700Z,22.15
2022-12-19T01:30:22.640Z,22.14
2022-12-19T01:31:22.691Z,22.15
2022-12-19T01:32:22.582Z,22.15
2022-12-19T01:33:22.570Z,22.16
2022-12-19T01:34:22.509Z,22.14
2022-12-19T01:35:22.531Z,22.16
2022-12-19T01:36:22.485Z,22.14
2022-12-19T01:37:22.483Z,22.12
2022-12-19T01:38:22.403Z,22.16
2022-12-19T01:39:22.419Z,22.12
2022-12-19T01:40:22.611Z,22.14
2022-12-19T01:41:22.559Z,22.14
2022-12-19T01:42:23.575Z,22.14
2022-12-19T01:43:22.585Z,22.11
2022-12-19T01:44:22.477Z,22.12
2022-12-19T01:45:22.449Z,22.14
2022-12-19T01:46:22.482Z,22.11
2022-12-19T01:47:22.413Z,22.12
2022-12-19T01:48:22.383Z,22.12
2022-12-19T01:49:25.199Z,22.09
2022-12-19T01:50:22.363Z,22.09
2022-12-19T01:51:22.312Z,22.09
2022-12-19T01:52:23.612Z,22.08
2022-12-19T01:53:22.274Z,22.08
2022-12-19T01:54:22.249Z,22.08
2022-12-19T01:55:22.202Z,22.07
2022-12-19T01:56:22.156Z,22.07
2022-12-19T01:57:22.111Z,22.08
2022-12-19T01:58:22.126Z,22.05
2022-12-19T01:59:22.131Z,22.07
2022-12-19T02:00:22.053Z,22.07
2022-12-19T02:01:22.101Z,22.05
2022-12-19T02:02:22.102Z,22.05
2022-12-19T02:03:22.022Z,22.07
2022-12-19T02:04:21.951Z,22.05
2022-12-19T02:05:21.931Z,22.04
2022-12-19T02:06:21.917Z,22.04
2022-12-19T02:07:21.910Z,22.04
2022-12-19T02:08:21.881Z,22.03
2022-12-19T02:09:21.844Z,22.04
2022-12-19T02:10:21.810Z,22.05
2022-12-19T02:11:21.758Z,22.01
2022-12-19T02:12:21.753Z,22.04
2022-12-19T02:13:21.719Z,22.03
2022-12-19T02:14:21.706Z,22.03
2022-12-19T02:15:21.775Z,22.00
2022-12-19T02:16:22.831Z,22.01
2022-12-19T02:17:21.597Z,22.03
2022-12-19T02:18:21.634Z,22.04
2022-12-19T02:19:21.595Z,22.01
2022-12-19T02:20:21.556Z,22.01
2022-12-19T02:21:21.520Z,22.00
2022-12-19T02:22:21.528Z,22.00
2022-12-19T02:23:21.505Z,21.97
2022-12-19T02:24:21.481Z,22.00
2022-12-19T02:25:21.410Z,21.97
2022-12-19T02:26:21.392Z,22.00
2022-12-19T02:27:21.375Z,21.98
2022-12-19T02:28:21.340Z,21.98
2022-12-19T02:29:21.318Z,21.94
2022-12-19T02:30:21.312Z,21.98
2022-12-19T02:31:21.426Z,22.00
2022-12-19T02:32:21.244Z,21.97
2022-12-19T02:33:21.191Z,21.98
2022-12-19T02:34:21.208Z,21.98
2022-12-19T02:35:21.173Z,21.96
2022-12-19T02:36:21.145Z,21.97
2022-12-19T02:37:21.120Z,21.96
2022-12-19T02:38:21.107Z,21.94
2022-12-19T02:39:21.060Z,21.96
2022-12-19T02:40:21.049Z,21.94
2022-12-19T02:41:20.999Z,21.96
2022-12-19T02:42:20.984Z,21.93
2022-12-19T02:43:20.940Z,21.96
2022-12-19T02:44:20.940Z,21.94
2022-12-19T02:45:28.280Z,21.93
2022-12-19T02:46:21.945Z,21.91
2022-12-19T02:47:20.933Z,21.94
2022-12-19T02:48:20.836Z,21.94
2022-12-19T02:49:30.761Z,21.94
2022-12-19T02:50:21.822Z,21.93
2022-12-19T02:51:20.764Z,21.93
2022-12-19T02:52:20.775Z,21.93
2022-12-19T02:53:23.396Z,21.94
2022-12-19T02:54:20.749Z,21.93
2022-12-19T02:55:20.666Z,21.91
2022-12-19T02:56:20.681Z,21.91
2022-12-19T02:57:20.641Z,21.88
2022-12-19T02:58:20.653Z,21.90
2022-12-19T02:59:20.583Z,21.94
2022-12-19T03:00:20.579Z,21.93
2022-12-19T03:01:20.643Z,21.93
2022-12-19T03:02:20.684Z,21.90
2022-12-19T03:03:20.705Z,21.90
2022-12-19T03:04:20.448Z,21.91
2022-12-19T03:05:20.432Z,21.90
2022-12-19T03:06:20.440Z,21.88
2022-12-19T03:07:20.369Z,21.87
2022-12-19T03:08:20.353Z,21.88
2022-12-19T03:09:20.316Z,21.91
2022-12-19T03:10:20.336Z,21.90
2022-12-19T03:11:20.262Z,21.88
2022-12-19T03:12:20.278Z,21.88
2022-12-19T03:13:20.236Z,21.88
2022-12-19T03:14:20.229Z,21.87
2022-12-19T03:15:20.164Z,21.88
2022-12-19T03:16:20.194Z,21.86
2022-12-19T03:17:20.114Z,21.88
2022-12-19T03:18:20.133Z,21.84
2022-12-19T03:19:20.145Z,21.86
2022-12-19T03:20:20.060Z,21.86
2022-12-19T03:21:20.003Z,21.86
2022-12-19T03:22:19.966Z,21.86
2022-12-19T03:23:19.956Z,21.84
2022-12-19T03:24:19.968Z,21.87
2022-12-19T03:25:19.866Z,21.83
2022-12-19T03:26:19.878Z,21.86
2022-12-19T03:27:19.843Z,21.86
2022-12-19T03:28:19.814Z,21.86
2022-12-19T03:29:19.761Z,21.86
2022-12-19T03:30:19.752Z,21.83
2022-12-19T03:31:19.801Z,21.84
2022-12-19T03:32:19.718Z,21.83
2022-12-19T03:33:19.673Z,21.81
2022-12-19T03:34:19.664Z,21.84
2022-12-19T03:35:19.722Z,21.84
2022-12-19T03:36:19.624Z,21.83
2022-12-19T03:37:19.575Z,21.83
2022-12-19T03:38:19.585Z,21.83
2022-12-19T03:39:19.555Z,21.81
2022-12-19T03:40:19.567Z,21.80
2022-12-19T03:41:19.520Z,21.81
2022-12-19T03:42:19.500Z,21.83
2022-12-19T03:43:19.485Z,21.80
2022-12-19T03:44:19.463Z,21.81
2022-12-19T03:45:19.435Z,21.81
2022-12-19T03:46:19.562Z,21.81
2022-12-19T03:47:19.376Z,21.81
2022-12-19T03:48:19.393Z,21.80
2022-12-19T03:49:19.369Z,21.79
2022-12-19T03:50:19.345Z,21.79
2022-12-19T03:51:19.393Z,21.80
2022-12-19T03:52:19.355Z,21.79
2022-12-19T03:53:19.313Z,21.79
2022-12-19T03:54:19.263Z,21.80
2022-12-19T03:55:19.209Z,21.77
2022-12-19T03:56:19.222Z,21.79
2022-12-19T03:57:19.200Z,21.79
2022-12-19T03:58:19.180Z,21.77
2022-12-19T03:59:19.117Z,21.80
2022-12-19T04:00:19.128Z,21.79
2022-12-19T04:01:19.208Z,21.76
2022-12-19T04:02:19.153Z,21.79
2022-12-19T04:03:19.090Z,21.76
2022-12-19T04:04:19.013Z,21.74
2022-12-19T04:05:19.064Z,21.74
2022-12-19T04:06:18.988Z,21.79
2022-12-19T04:07:19.019Z,21.73
2022-12-19T04:08:18.929Z,21.74
2022-12-19T04:09:22.387Z,21.74
2022-12-19T04:10:18.878Z,21.76
2022-12-19T04:11:18.831Z,21.76
2022-12-19T04:12:18.854Z,21.74
2022-12-19T04:13:18.797Z,21.76
2022-12-19T04:14:18.766Z,21.74
2022-12-19T04:15:19.303Z,21.74
2022-12-19T04:16:18.778Z,21.74
2022-12-19T04:17:18.706Z,21.73
2022-12-19T04:18:18.684Z,21.74
2022-12-19T04:19:18.645Z,21.74
2022-12-19T04:20:18.634Z,21.73
2022-12-19T04:21:18.566Z,21.73
2022-12-19T04:22:18.609Z,21.74
2022-12-19T04:23:19.527Z,21.72
2022-12-19T04:24:18.539Z,21.73
2022-12-19T04:25:18.468Z,21.72
2022-12-19T04:26:18.507Z,21.72
2022-12-19T04:27:18.437Z,21.69
2022-12-19T04:28:18.455Z,21.72
2022-12-19T04:29:18.475Z,21.70
2022-12-19T04:30:18.417Z,21.70
2022-12-19T04:31:18.397Z,21.73
2022-12-19T04:32:18.380Z,21.72
2022-12-19T04:33:18.291Z,21.70
2022-12-19T04:34:18.300Z,21.70
2022-12-19T04:35:18.277Z,21.73
2022-12-19T04:36:18.281Z,21.72
2022-12-19T04:37:18.224Z,21.72
2022-12-19T04:38:18.244Z,21.70
2022-12-19T04:39:18.191Z,21.69
2022-12-19T04:40:18.196Z,21.72
2022-12-19T04:41:18.143Z,21.70
2022-12-19T04:42:18.164Z,21.69
2022-12-19T04:43:18.111Z,21.70
2022-12-19T04:44:18.133Z,21.69
2022-12-19T04:45:18.029Z,21.69
2022-12-19T04:46:18.076Z,21.69
2022-12-19T04:47:18.010Z,21.67
2022-12-19T04:48:17.993Z,21.69
2022-12-19T04:49:17.938Z,21.70
2022-12-19T04:50:17.933Z,21.67
2022-12-19T04:51:17.873Z,21.67
2022-12-19T04:52:17.876Z,21.67
2022-12-19T04:53:17.839Z,21.69
2022-12-19T04:54:17.830Z,21.70
2022-12-19T04:55:17.848Z,21.69
2022-12-19T04:56:17.768Z,21.69
2022-12-19T04:57:17.720Z,21.66
2022-12-19T04:58:21.645Z,21.67
2022-12-19T04:59:17.654Z,21.66
2022-12-19T05:00:17.638Z,21.66
2022-12-19T05:01:17.672Z,21.66
2022-12-19T05:02:17.703Z,21.64
2022-12-19T05:03:17.571Z,21.66
2022-12-19T05:04:17.522Z,21.64
2022-12-19T05:05:17.484Z,21.64
2022-12-19T05:06:17.497Z,21.63
2022-12-19T05:07:17.419Z,21.64
2022-12-19T05:08:17.424Z,21.64
2022-12-19T05:09:17.355Z,21.66
2022-12-19T05:10:17.360Z,21.64
2022-12-19T05:11:19.716Z,21.63
2022-12-19T05:12:17.297Z,21.63
2022-12-19T05:13:17.235Z,21.63
2022-12-19T05:14:17.260Z,21.64
2022-12-19T05:15:17.175Z,21.62
2022-12-19T05:16:17.206Z,21.64
2022-12-19T05:17:17.136Z,21.63
2022-12-19T05:18:17.144Z,21.63
2022-12-19T05:19:17.049Z,21.60
2022-12-19T05:20:17.055Z,21.63
2022-12-19T05:21:16.995Z,21.63
2022-12-19T05:22:16.999Z,21.62
2022-12-19T05:23:17.869Z,21.62
2022-12-19T05:24:16.935Z,21.62
2022-12-19T05:25:16.882Z,21.60
2022-12-19T05:26:16.898Z,21.62
2022-12-19T05:27:16.974Z,21.62
2022-12-19T05:28:16.836Z,21.59
2022-12-19T05:29:16.793Z,21.60
2022-12-19T05:30:16.781Z,21.60
2022-12-19T05:31:16.778Z,21.60
2022-12-19T05:32:16.759Z,21.59
2022-12-19T05:33:16.698Z,21.59
2022-12-19T05:34:16.697Z,21.62
2022-12-19T05:35:16.631Z,21.59
2022-12-19T05:36:16.634Z,21.59
2022-12-19T05:37:16.570Z,21.60
2022-12-19T05:38:16.579Z,21.60
2022-12-19T05:39:16.548Z,21.57
2022-12-19T05:40:16.572Z,21.60
2022-12-19T05:41:16.491Z,21.59
2022-12-19T05:42:16.503Z,21.59
2022-12-19T05:43:16.544Z,21.59
2022-12-19T05:44:16.461Z,21.60
2022-12-19T05:45:16.371Z,21.60
2022-12-19T05:46:16.444Z,21.54
2022-12-19T05:47:16.354Z,21.57
2022-12-19T05:48:16.374Z,21.57
2022-12-19T05:49:16.286Z,21.57
2022-12-19T05:50:16.301Z,21.53
2022-12-19T05:51:16.225Z,21.57
2022-12-19T05:52:16.250Z,21.54
2022-12-19T05:53:16.163Z,21.54
2022-12-19T05:54:16.165Z,21.54
2022-12-19T05:55:16.193Z,21.57
2022-12-19T05:56:16.145Z,21.60
2022-12-19T05:57:16.116Z,21.63
2022-12-19T05:58:16.070Z,21.63
2022-12-19T05:59:16.109Z,21.64
2022-12-19T06:00:16.022Z,21.69
2022-12-19T06:01:15.968Z,21.77
2022-12-19T06:02:16.124Z,21.84
2022-12-19T06:03:16.001Z,21.87
2022-12-19T06:04:15.909Z,21.97
2022-12-19T06:05:15.916Z,22.01
2022-12-19T06:06:15.960Z,22.09
2022-12-19T06:07:20.771Z,22.15
2022-12-19T06:08:16.813Z,22.19
2022-12-19T06:09:15.841Z,22.22
2022-12-19T06:10:15.761Z,22.28
2022-12-19T06:11:15.690Z,22.32
2022-12-19T06:12:15.714Z,22.38
2022-12-19T06:13:16.493Z,22.45
2022-12-19T06:14:15.639Z,22.48
2022-12-19T06:15:15.654Z,22.53
2022-12-19T06:16:15.634Z,22.58
2022-12-19T06:17:15.518Z,22.64
2022-12-19T06:18:15.506Z,22.70
2022-12-19T06:19:15.426Z,22.73
2022-12-19T06:20:15.423Z,22.78
2022-12-19T06:21:15.359Z,22.83
2022-12-19T06:22:15.359Z,22.91
2022-12-19T06:23:15.254Z,22.94
2022-12-19T06:24:15.286Z,22.97
2022-12-19T06:25:15.201Z,23.01
2022-12-19T06:26:19.027Z,23.05
2022-12-19T06:27:15.139Z,23.11
2022-12-19T06:28:15.141Z,23.14
2022-12-19T06:29:15.035Z,23.17
2022-12-19T06:30:15.016Z,23.21
2022-12-19T06:31:15.183Z,23.23
2022-12-19T06:32:14.968Z,23.28
2022-12-19T06:33:14.863Z,23.31
2022-12-19T06:34:27.278Z,23.33
2022-12-19T06:35:15.853Z,23.35
2022-12-19T06:36:14.765Z,23.38
2022-12-19T06:37:14.736Z,23.42
2022-12-19T06:38:14.677Z,23.44
2022-12-19T06:39:14.634Z,23.48
2022-12-19T06:40:14.585Z,23.49
2022-12-19T06:41:14.560Z,23.52
2022-12-19T06:42:14.519Z,23.57
2022-12-19T06:43:14.494Z,23.56
2022-12-19T06:44:14.417Z,23.59
2022-12-19T06:45:14.393Z,23.60
2022-12-19T06:46:14.367Z,23.63
2022-12-19T06:47:14.421Z,23.63
2022-12-19T06:48:14.247Z,23.66
2022-12-19T06:49:14.248Z,23.69
2022-12-19T06:51:46.745Z,23.73
2022-12-19T06:52:46.679Z,23.72
2022-12-19T06:53:46.664Z,23.74
2022-12-19T06:54:46.655Z,23.73
2022-12-19T06:55:46.610Z,23.76
2022-12-19T06:56:46.552Z,23.76
2022-12-19T06:57:46.605Z,23.79
2022-12-19T06:58:46.518Z,23.77
2022-12-19T06:59:46.520Z,23.79
2022-12-19T07:00:46.452Z,23.77
2022-12-19T07:01:46.498Z,23.81
2022-12-19T07:02:46.612Z,23.77
2022-12-19T07:03:46.405Z,23.80
2022-12-19T07:04:46.346Z,23.79
2022-12-19T07:05:46.322Z,23.81
2022-12-19T07:06:49.283Z,23.79
2022-12-19T07:07:46.251Z,23.80
2022-12-19T07:08:46.208Z,23.79
2022-12-19T07:09:46.202Z,23.80
2022-12-19T07:10:46.182Z,23.79
2022-12-19T07:11:46.127Z,23.80
2022-12-19T07:12:46.117Z,23.83
2022-12-19T07:13:46.084Z,23.80
2022-12-19T07:14:51.698Z,23.81
2022-12-19T07:15:47.027Z,23.81
2022-12-19T07:16:45.996Z,23.80
2022-12-19T07:17:45.943Z,23.76
2022-12-19T07:18:45.976Z,23.77
2022-12-19T07:19:45.884Z,23.73
2022-12-19T07:20:45.859Z,23.62
2022-12-19T07:21:45.851Z,23.63
2022-12-19T07:22:45.775Z,23.66
2022-12-19T07:23:45.966Z,23.60
2022-12-19T07:24:45.766Z,23.66
2022-12-19T07:25:45.731Z,23.59
2022-12-19T07:26:45.674Z,23.67
2022-12-19T07:27:45.794Z,23.65
2022-12-19T07:28:45.607Z,23.57
2022-12-19T07:29:45.607Z,23.59
2022-12-19T07:30:45.550Z,23.52
2022-12-19T07:31:45.510Z,23.57
2022-12-19T07:32:45.502Z,23.66
2022-12-19T07:33:45.483Z,23.66
2022-12-19T07:34:45.529Z,23.63
2022-12-19T07:35:45.397Z,23.59
2022-12-19T07:36:45.368Z,23.62
2022-12-19T07:37:45.378Z,23.63
2022-12-19T07:38:45.321Z,23.63
2022-12-19T07:39:46.304Z,23.59
2022-12-19T07:40:45.261Z,23.62
2022-12-19T07:41:45.260Z,23.65
2022-12-19T07:42:45.228Z,23.66
2022-12-19T07:43:45.183Z,23.65
2022-12-19T07:44:45.147Z,23.70
2022-12-19T07:45:45.228Z,23.72
2022-12-19T07:46:45.107Z,23.72
2022-12-19T07:47:45.080Z,23.62
2022-12-19T07:48:45.004Z,23.63
2022-12-19T07:49:45.001Z,23.70
2022-12-19T07:50:45.051Z,23.74
2022-12-19T07:51:44.984Z,23.77
2022-12-19T07:52:44.892Z,23.70
2022-12-19T07:53:44.884Z,23.70
2022-12-19T07:54:44.849Z,23.74
2022-12-19T07:55:44.857Z,23.73
2022-12-19T07:56:44.776Z,23.74
2022-12-19T07:57:44.788Z,23.74
2022-12-19T07:58:44.722Z,23.73
2022-12-19T07:59:44.747Z,23.73
2022-12-19T08:00:44.677Z,23.77
2022-12-19T08:01:44.828Z,23.79
2022-12-19T08:02:44.707Z,23.74
2022-12-19T08:03:44.612Z,23.74
2022-12-19T08:04:44.552Z,23.79
2022-12-19T08:05:44.566Z,23.79
2022-12-19T08:06:44.588Z,23.74
2022-12-19T08:07:44.512Z,23.69
2022-12-19T08:08:44.434Z,23.67
2022-12-19T08:09:44.449Z,23.62
2022-12-19T08:10:44.404Z,23.69
2022-12-19T08:11:44.407Z,23.62
2022-12-19T08:12:44.329Z,23.62
2022-12-19T08:13:46.708Z,23.57
2022-12-19T08:14:44.279Z,23.63
2022-12-19T08:15:44.300Z,23.56
2022-12-19T08:17:18.823Z,23.59
2022-12-19T08:17:45.285Z,23.59
2022-12-19T08:18:44.157Z,23.53
2022-12-19T08:19:44.167Z,23.53
2022-12-19T08:20:44.141Z,23.55
2022-12-19T08:21:44.143Z,23.53
2022-12-19T08:22:44.194Z,23.52
2022-12-19T08:23:44.088Z,23.53
2022-12-19T08:24:44.091Z,23.56
2022-12-19T08:25:44.033Z,23.56
2022-12-19T08:26:47.611Z,23.52
2022-12-19T08:27:44.009Z,23.52
2022-12-19T08:28:43.928Z,23.48
2022-12-19T08:29:43.966Z,23.42
2022-12-19T08:30:43.896Z,23.49
2022-12-19T08:31:43.887Z,23.48
2022-12-19T08:32:43.872Z,23.48
2022-12-19T08:33:43.882Z,23.46
2022-12-19T08:34:43.811Z,23.44
2022-12-19T08:35:43.819Z,23.42
2022-12-19T08:36:43.762Z,23.44
2022-12-19T08:37:43.780Z,23.44
2022-12-19T08:38:43.799Z,23.39
2022-12-19T08:39:43.725Z,23.14
2022-12-19T08:40:47.383Z,22.90
2022-12-19T08:41:43.702Z,22.48
2022-12-19T08:42:43.657Z,22.15
2022-12-19T08:43:43.701Z,21.72
2022-12-19T08:44:43.745Z,21.53
2022-12-19T08:45:43.779Z,21.35
2022-12-19T08:46:49.709Z,21.39
2022-12-19T08:47:44.809Z,21.45
2022-12-19T08:48:43.732Z,21.59
2022-12-19T08:49:43.801Z,21.76
2022-12-19T08:50:43.740Z,21.87
2022-12-19T08:51:43.784Z,21.98
2022-12-19T08:52:43.691Z,22.09
2022-12-19T08:53:43.732Z,22.22
2022-12-19T08:54:43.825Z,22.35
2022-12-19T08:55:43.788Z,22.43
2022-12-19T08:56:46.895Z,22.53
2022-12-19T08:57:43.702Z,22.60
2022-12-19T08:58:43.671Z,22.67
2022-12-19T08:59:43.907Z,22.78
2022-12-19T09:00:45.514Z,22.84
2022-12-19T09:01:44.762Z,22.93
2022-12-19T09:02:43.852Z,23.00
2022-12-19T09:04:17.531Z,23.04
2022-12-19T09:05:51.272Z,23.12
2022-12-19T09:05:59.365Z,23.15
2022-12-19T09:06:44.580Z,23.22
2022-12-19T09:07:43.518Z,23.25
2022-12-19T09:08:43.503Z,23.28
2022-12-19T09:09:43.484Z,23.32
2022-12-19T09:10:43.553Z,23.35
2022-12-19T09:11:48.272Z,23.35
2022-12-19T09:12:44.513Z,23.38
2022-12-19T09:13:43.395Z,23.39
2022-12-19T09:14:43.370Z,23.42
2022-12-19T09:15:43.338Z,23.46
2022-12-19T09:16:43.396Z,23.41
2022-12-19T09:17:43.361Z,23.42
2022-12-19T09:18:48.183Z,23.44
2022-12-19T09:19:47.543Z,23.44
2022-12-19T09:20:43.244Z,23.44
2022-12-19T09:21:43.256Z,23.42
2022-12-19T09:22:43.177Z,23.41
2022-12-19T09:23:43.211Z,23.39
2022-12-19T09:24:43.123Z,23.42
2022-12-19T09:25:43.161Z,23.42
2022-12-19T09:26:43.167Z,23.39
2022-12-19T09:28:17.913Z,23.42
2022-12-19T09:28:44.096Z,23.41
2022-12-19T09:29:43.144Z,23.41
2022-12-19T09:30:43.072Z,23.39
2022-12-19T09:31:43.013Z,23.38
2022-12-19T09:32:43.014Z,23.38
2022-12-19T09:33:43.817Z,23.37
2022-12-19T09:34:42.971Z,23.35
2022-12-19T09:35:42.957Z,23.33
2022-12-19T09:36:42.936Z,23.32
2022-12-19T09:37:42.927Z,23.31
2022-12-19T09:38:42.917Z,23.32
2022-12-19T09:39:42.977Z,23.32
2022-12-19T09:40:42.877Z,23.29
2022-12-19T09:41:42.871Z,23.29
2022-12-19T09:42:42.949Z,23.29
2022-12-19T09:43:42.895Z,23.28
2022-12-19T09:44:42.826Z,23.25
2022-12-19T09:45:42.812Z,23.25
2022-12-19T09:46:42.807Z,23.22
2022-12-19T09:47:42.754Z,23.25
2022-12-19T09:48:42.776Z,23.22
2022-12-19T09:49:42.763Z,23.19
2022-12-19T09:50:42.815Z,23.21
2022-12-19T09:51:42.697Z,23.21
2022-12-19T09:52:42.696Z,23.22
2022-12-19T09:53:42.661Z,23.18
2022-12-19T09:54:42.675Z,23.23
2022-12-19T09:55:42.664Z,23.23
2022-12-19T09:56:46.007Z,23.25
2022-12-19T09:57:42.593Z,23.28
2022-12-19T09:58:42.692Z,23.29
2022-12-19T09:59:47.911Z,23.28
2022-12-19T10:00:43.572Z,23.32
2022-12-19T10:01:42.595Z,23.31
2022-12-19T10:02:42.644Z,23.33
2022-12-19T10:03:42.564Z,23.38
2022-12-19T10:04:42.469Z,23.37
2022-12-19T10:06:55.871Z,23.39
2022-12-19T10:07:21.232Z,23.41
2022-12-19T10:08:07.097Z,23.38
2022-12-19T10:09:20.170Z,23.38
2022-12-19T10:11:26.014Z,23.39
2022-12-19T10:12:41.313Z,23.38
2022-12-19T10:12:44.784Z,23.39
2022-12-19T10:12:51.171Z,23.39
2022-12-19T10:13:43.300Z,23.42
2022-12-19T10:14:42.361Z,23.39
2022-12-19T10:15:42.308Z,23.39
2022-12-19T10:16:48.491Z,23.38
2022-12-19T10:17:43.240Z,23.37
2022-12-19T10:18:42.170Z,23.37
2022-12-19T10:19:42.197Z,23.37
2022-12-19T10:20:42.127Z,23.35
2022-12-19T10:22:43.111Z,23.35
2022-12-19T10:23:42.055Z,23.31
2022-12-19T10:24:42.077Z,23.32
2022-12-19T10:25:42.032Z,23.29
2022-12-19T10:26:42.017Z,23.32
2022-12-19T10:27:58.332Z,23.32
2022-12-19T10:28:42.987Z,23.33
2022-12-19T10:29:41.943Z,23.32
2022-12-19T10:30:42.380Z,23.32
2022-12-19T10:31:41.946Z,23.31
2022-12-19T10:32:41.917Z,23.33
2022-12-19T10:33:41.843Z,23.33
2022-12-19T10:34:41.864Z,23.33
2022-12-19T10:35:41.808Z,23.33
2022-12-19T10:37:12.995Z,23.37
2022-12-19T10:37:49.151Z,23.35
2022-12-19T10:38:48.746Z,23.38
2022-12-19T10:39:42.727Z,23.38
2022-12-19T10:40:41.659Z,23.39
2022-12-19T10:41:44.268Z,23.38
2022-12-19T10:42:41.743Z,23.38
2022-12-19T10:43:44.488Z,23.41
2022-12-19T10:44:41.594Z,23.42
2022-12-19T10:45:41.653Z,23.39
2022-12-19T10:46:41.670Z,23.41
2022-12-19T10:47:41.543Z,23.39
2022-12-19T10:48:41.506Z,23.41
2022-12-19T10:49:41.576Z,23.39
2022-12-19T10:50:41.460Z,23.39
2022-12-19T10:51:41.448Z,23.39
2022-12-19T10:52:41.410Z,23.39
2022-12-19T10:53:41.414Z,23.39
2022-12-19T10:54:41.450Z,23.38
2022-12-19T10:55:41.446Z,23.38
2022-12-19T10:56:41.436Z,23.38
2022-12-19T10:57:41.391Z,23.35
2022-12-19T10:58:41.402Z,23.38
2022-12-19T10:59:41.387Z,23.33
2022-12-19T11:00:41.365Z,23.38
2022-12-19T11:01:41.457Z,23.38
2022-12-19T11:02:41.618Z,23.37
2022-12-19T11:03:41.300Z,23.37
2022-12-19T11:04:41.296Z,23.35
2022-12-19T11:05:41.253Z,23.37
2022-12-19T11:06:41.214Z,23.35
2022-12-19T11:07:41.168Z,23.35
2022-12-19T11:08:41.275Z,23.38
2022-12-19T11:09:41.131Z,23.33
2022-12-19T11:11:49.339Z,23.33
2022-12-19T11:15:22.865Z,23.35
2022-12-19T11:18:06.763Z,23.37
2022-12-19T11:18:57.277Z,23.35
2022-12-19T11:19:29.316Z,23.35
2022-12-19T11:20:43.598Z,23.32
2022-12-19T11:21:35.855Z,23.31
2022-12-19T11:24:37.659Z,23.32
2022-12-19T11:28:24.912Z,23.32
2022-12-19T11:29:16.309Z,23.26
2022-12-19T11:29:26.454Z,23.23
2022-12-19T11:29:26.910Z,23.25
2022-12-19T11:30:09.510Z,23.21
2022-12-19T11:30:36.276Z,23.19
2022-12-19T11:30:43.548Z,23.23
2022-12-19T11:30:44.127Z,23.14
2022-12-19T11:30:47.441Z,23.21
2022-12-19T11:30:47.441Z,23.14
2022-12-19T11:30:47.823Z,23.25
2022-12-19T11:32:45.007Z,23.08
2022-12-19T11:33:40.815Z,23.05
2022-12-19T11:34:40.787Z,23.05
2022-12-19T11:35:40.709Z,23.04
2022-12-19T11:36:40.674Z,23.03
2022-12-19T11:37:40.775Z,23.01
2022-12-19T11:38:40.679Z,22.98
2022-12-19T11:39:40.654Z,22.98
2022-12-19T11:40:46.721Z,22.97
2022-12-19T11:41:41.625Z,22.94
2022-12-19T11:42:40.582Z,22.91
2022-12-19T11:43:45.396Z,22.95
2022-12-19T11:44:41.645Z,22.95
2022-12-19T11:45:40.577Z,22.95
2022-12-19T11:46:40.596Z,22.97
2022-12-19T11:47:40.510Z,22.95
2022-12-19T11:48:40.530Z,22.95
2022-12-19T11:49:40.488Z,22.98
2022-12-19T11:50:40.593Z,23.03
2022-12-19T11:51:40.462Z,23.03
2022-12-19T11:53:41.460Z,23.05
2022-12-19T11:54:40.409Z,23.10
2022-12-19T11:55:40.444Z,23.11
2022-12-19T11:56:40.396Z,23.14
2022-12-19T11:57:40.419Z,23.17
2022-12-19T11:58:40.352Z,23.21
2022-12-19T11:59:40.365Z,23.26
2022-12-19T12:00:40.329Z,23.29
2022-12-19T12:01:40.334Z,23.31
2022-12-19T12:02:40.282Z,23.35
2022-12-19T12:03:40.411Z,23.41
2022-12-19T12:04:40.277Z,23.44
2022-12-19T12:05:40.266Z,23.45
2022-12-19T12:06:45.566Z,23.49
2022-12-19T12:08:26.249Z,23.53
2022-12-19T12:09:35.932Z,23.53
2022-12-19T12:15:29.345Z,23.57
2022-12-19T12:15:49.717Z,23.57
2022-12-19T12:17:06.268Z,23.59
2022-12-19T12:17:48.839Z,23.62
2022-12-19T12:24:00.138Z,23.63
2022-12-19T12:24:56.234Z,23.66
2022-12-19T12:25:08.047Z,23.69
2022-12-19T12:30:13.774Z,23.69
2022-12-19T12:30:36.163Z,23.69
2022-12-19T12:30:53.616Z,23.69
2022-12-19T12:31:11.788Z,23.70
2022-12-19T12:31:16.425Z,23.72
2022-12-19T12:31:31.888Z,23.67
2022-12-19T12:31:32.657Z,23.69
2022-12-19T12:31:39.146Z,23.67
2022-12-19T12:31:40.085Z,23.70
2022-12-19T12:31:43.410Z,23.66
2022-12-19T12:31:45.691Z,23.69
2022-12-19T12:31:46.810Z,23.66
2022-12-19T12:31:51.726Z,23.65
2022-12-19T12:31:56.044Z,23.67
2022-12-19T12:31:57.251Z,23.66
2022-12-19T12:35:30.454Z,23.67
2022-12-19T12:35:50.035Z,23.66
2022-12-19T12:35:51.513Z,23.63
2022-12-19T12:38:40.793Z,23.57
2022-12-19T12:39:39.489Z,23.62
2022-12-19T12:40:39.421Z,23.57
2022-12-19T12:41:39.385Z,23.60
2022-12-19T12:42:39.378Z,23.62
2022-12-19T12:43:39.386Z,23.59
2022-12-19T12:44:45.165Z,23.60
2022-12-19T12:45:40.385Z,23.60
2022-12-19T12:46:39.289Z,23.62
2022-12-19T12:47:39.276Z,23.62
2022-12-19T12:48:39.243Z,23.60
2022-12-19T12:49:39.236Z,23.63
2022-12-19T12:50:39.193Z,23.65
2022-12-19T12:51:47.990Z,23.63
2022-12-19T12:52:39.193Z,23.65
2022-12-19T12:53:39.174Z,23.67
2022-12-19T12:54:39.108Z,23.67
2022-12-19T12:55:39.115Z,23.67
2022-12-19T12:56:39.077Z,23.66
2022-12-19T12:57:39.080Z,23.70
2022-12-19T12:58:39.002Z,23.67
2022-12-19T12:59:39.008Z,23.69
2022-12-19T13:00:38.965Z,23.70
2022-12-19T13:01:39.133Z,23.72
2022-12-19T13:02:39.054Z,23.72
2022-12-19T13:03:38.961Z,23.72
2022-12-19T13:04:38.864Z,23.70